Time;durP1;ratioP1;P1;durP2;ratioP2;P2;SDS_P1;SDS_P2;PMS_P1;PMS_P2;Temp;Humidity;BMP_temperature;BMP_pressure;BME280_temperature;BME280_humidity;BME280_pressure;Samples;Min_cycle;Max_cycle;Signal;HPM_P1;HPM_P2
2023/06/09 00:00:55;;;;;;;4.88;4.47;;;21.90;55.80;;;;;;5034829;28;20216;-79
2023/06/09 00:03:22;;;;;;;4.28;3.97;;;21.90;55.80;;;;;;5034046;28;20207;-79
2023/06/09 00:05:49;;;;;;;4.32;4.03;;;21.90;55.80;;;;;;5035139;28;20203;-79
2023/06/09 00:08:18;;;;;;;5.03;4.35;;;21.90;55.80;;;;;;5034291;28;20200;-79
2023/06/09 00:10:45;;;;;;;4.80;4.32;;;21.90;55.80;;;;;;5033945;28;20224;-79
2023/06/09 00:13:12;;;;;;;4.50;4.20;;;21.90;55.80;;;;;;5034773;28;20199;-79
2023/06/09 00:15:39;;;;;;;5.20;4.72;;;21.90;55.90;;;;;;5034057;28;20624;-79
2023/06/09 00:18:06;;;;;;;4.57;4.18;;;21.80;55.80;;;;;;5033581;28;20192;-79
2023/06/09 00:20:34;;;;;;;4.13;3.83;;;21.90;55.90;;;;;;5033853;28;20258;-79
2023/06/09 00:23:01;;;;;;;4.82;4.43;;;21.80;55.80;;;;;;5033447;28;20200;-76
2023/06/09 00:25:30;;;;;;;4.90;4.50;;;21.90;55.90;;;;;;5033528;28;20216;-79
2023/06/09 00:27:57;;;;;;;4.22;3.92;;;21.90;56.00;;;;;;5034810;28;20274;-79
2023/06/09 00:30:24;;;;;;;4.53;4.13;;;21.80;55.90;;;;;;5033213;28;20254;-79
2023/06/09 00:32:51;;;;;;;4.38;3.97;;;21.80;55.90;;;;;;5034823;28;20192;-79
2023/06/09 00:35:18;;;;;;;4.63;4.22;;;21.80;55.90;;;;;;5034093;28;20216;-79
2023/06/09 00:37:48;;;;;;;4.43;4.03;;;21.80;55.90;;;;;;5033165;28;20219;-79
2023/06/09 00:40:15;;;;;;;4.53;4.13;;;21.80;56.00;;;;;;5033095;28;20204;-79
2023/06/09 00:42:44;;;;;;;4.03;3.60;;;21.80;56.00;;;;;;5033296;28;20554;-79
2023/06/09 00:45:11;;;;;;;4.78;4.38;;;21.70;55.80;;;;;;5034201;28;20553;-78
2023/06/09 00:47:38;;;;;;;4.75;4.35;;;21.70;55.80;;;;;;5033370;28;20246;-78
2023/06/09 00:50:06;;;;;;;4.22;3.90;;;21.70;55.80;;;;;;5033285;28;20198;-78
2023/06/09 00:52:33;;;;;;;4.15;3.80;;;21.70;55.90;;;;;;5032869;28;20215;-78
2023/06/09 00:55:00;;;;;;;4.40;4.00;;;21.70;55.90;;;;;;5032777;28;20200;-78
2023/06/09 00:57:29;;;;;;;4.45;4.05;;;21.70;55.90;;;;;;5032903;28;20207;-78
2023/06/09 00:59:58;;;;;;;4.78;4.38;;;21.70;55.90;;;;;;5033608;28;20208;-77
2023/06/09 01:02:25;;;;;;;4.32;4.00;;;21.70;55.90;;;;;;5032971;28;20223;-77
2023/06/09 01:04:54;;;;;;;4.47;4.18;;;21.60;55.80;;;;;;5033018;28;20253;-77
2023/06/09 01:07:28;;;;;;;4.95;4.55;;;21.60;55.80;;;;;;5038723;28;20192;-77
2023/06/09 01:09:58;;;;;;;4.10;3.80;;;21.70;55.90;;;;;;5033054;28;20188;-77
2023/06/09 01:12:35;;;;;;;4.65;4.25;;;21.60;55.90;;;;;;5032887;28;20219;-77
2023/06/09 01:15:06;;;;;;;4.68;4.28;;;21.60;55.80;;;;;;5033047;28;20192;-77
2023/06/09 01:17:33;;;;;;;4.70;4.30;;;21.60;55.80;;;;;;5032636;28;20631;-77
2023/06/09 01:20:05;;;;;;;4.57;4.18;;;21.70;56.00;;;;;;5032613;28;20720;-77
2023/06/09 01:22:37;;;;;;;4.45;4.05;;;21.60;55.80;;;;;;5032881;28;20215;-78
2023/06/09 01:25:27;;;;;;;4.45;4.13;;;21.60;55.80;;;;;;5032625;28;20207;-78
2023/06/09 01:27:57;;;;;;;4.40;4.00;;;21.60;55.80;;;;;;5032354;28;20192;-78
2023/06/09 01:30:29;;;;;;;4.78;4.38;;;21.60;55.80;;;;;;5032392;28;20196;-78
2023/06/09 01:32:58;;;;;;;4.65;4.25;;;21.60;55.80;;;;;;5032472;28;20184;-78
2023/06/09 01:35:25;;;;;;;4.40;4.00;;;21.50;55.80;;;;;;5032463;28;20212;-78
2023/06/09 01:37:53;;;;;;;4.28;3.95;;;21.60;55.80;;;;;;5032272;28;20196;-78
2023/06/09 01:40:22;;;;;;;4.20;3.90;;;21.50;56.30;;;;;;5032535;28;20211;-78
2023/06/09 01:42:49;;;;;;;4.47;4.10;;;21.60;55.90;;;;;;5032234;28;20200;-78
2023/06/09 01:45:17;;;;;;;4.30;4.00;;;21.60;55.90;;;;;;5016408;28;20702;-78
2023/06/09 01:47:44;;;;;;;4.57;4.28;;;21.50;55.80;;;;;;5032385;28;20267;-78
2023/06/09 01:50:14;;;;;;;4.40;4.10;;;21.50;55.80;;;;;;5032635;28;20250;-78
2023/06/09 01:52:43;;;;;;;4.40;4.10;;;21.50;55.80;;;;;;5032352;28;20219;-78
2023/06/09 01:55:12;;;;;;;4.25;3.85;;;21.50;55.70;;;;;;5032540;28;20566;-78
2023/06/09 01:57:44;;;;;;;4.57;4.18;;;21.60;55.80;;;;;;5034273;28;20227;-78
2023/06/09 02:00:12;;;;;;;4.53;4.15;;;21.50;55.80;;;;;;5036002;28;20192;-78
2023/06/09 02:02:42;;;;;;;4.18;3.88;;;21.50;55.80;;;;;;5037966;28;20267;-78
2023/06/09 02:05:10;;;;;;;4.10;3.80;;;21.50;55.80;;;;;;5035846;28;20228;-78
2023/06/09 02:07:39;;;;;;;4.85;4.45;;;21.50;55.70;;;;;;5035908;28;20192;-78
2023/06/09 02:10:08;;;;;;;4.70;4.30;;;21.50;55.80;;;;;;5019735;28;20608;-78
2023/06/09 02:12:35;;;;;;;4.63;4.22;;;21.50;55.80;;;;;;5035815;28;20220;-78
2023/06/09 02:15:05;;;;;;;4.45;4.05;;;21.50;55.80;;;;;;5035886;28;20203;-78
2023/06/09 02:17:33;;;;;;;4.20;3.90;;;21.50;55.80;;;;;;5036276;28;20212;-78
2023/06/09 02:20:00;;;;;;;4.65;4.30;;;21.50;55.80;;;;;;5036101;28;20215;-78
2023/06/09 02:22:27;;;;;;;4.47;4.07;;;21.50;55.80;;;;;;5035726;28;20216;-78
2023/06/09 02:24:54;;;;;;;4.22;3.83;;;21.50;55.80;;;;;;5037088;28;20683;-78
2023/06/09 02:27:20;;;;;;;4.10;3.75;;;21.50;55.80;;;;;;5037074;28;20188;-78
2023/06/09 02:29:47;;;;;;;4.30;4.00;;;21.50;55.70;;;;;;5035816;28;20203;-77
2023/06/09 02:32:18;;;;;;;4.32;4.03;;;21.50;55.70;;;;;;5036853;28;20231;-77
2023/06/09 02:34:45;;;;;;;4.15;3.85;;;21.50;56.40;;;;;;5035518;28;20200;-77
2023/06/09 02:37:13;;;;;;;4.30;4.00;;;21.50;55.70;;;;;;5035415;28;20314;-77
2023/06/09 02:39:43;;;;;;;4.50;4.10;;;21.40;55.60;;;;;;5020545;28;20283;-77
2023/06/09 02:42:10;;;;;;;4.22;3.92;;;21.50;55.80;;;;;;5035770;28;20220;-77
2023/06/09 02:44:37;;;;;;;4.28;3.97;;;21.40;55.70;;;;;;5035667;28;20189;-77
2023/06/09 02:47:06;;;;;;;4.57;4.18;;;21.40;55.70;;;;;;5002870;28;20192;-77
2023/06/09 02:49:34;;;;;;;4.05;3.75;;;21.40;55.70;;;;;;5035300;28;20204;-77
2023/06/09 02:52:03;;;;;;;4.40;4.10;;;21.40;55.70;;;;;;5035241;28;20222;-77
2023/06/09 02:54:33;;;;;;;4.38;4.07;;;21.40;55.70;;;;;;5035292;28;20192;-77
2023/06/09 02:57:00;;;;;;;4.68;4.28;;;21.40;55.70;;;;;;5035590;28;20251;-77
2023/06/09 02:59:29;;;;;;;4.82;4.43;;;21.40;55.70;;;;;;5036321;28;20254;-77
2023/06/09 03:01:56;;;;;;;4.18;3.83;;;21.40;55.70;;;;;;5018977;28;20750;-77
2023/06/09 03:04:24;;;;;;;4.10;3.80;;;21.40;55.70;;;;;;5035318;28;20744;-77
2023/06/09 03:06:54;;;;;;;4.43;4.13;;;21.40;55.70;;;;;;5034850;28;20724;-77
2023/06/09 03:09:22;;;;;;;4.70;4.30;;;21.40;55.70;;;;;;5035215;28;20192;-77
2023/06/09 03:11:55;;;;;;;4.35;4.00;;;21.30;55.60;;;;;;5034469;28;20218;-78
2023/06/09 03:14:23;;;;;;;4.30;4.00;;;21.40;55.70;;;;;;5035043;28;20250;-78
2023/06/09 03:16:52;;;;;;;4.50;4.10;;;21.40;55.60;;;;;;5034551;28;20215;-78
2023/06/09 03:19:19;;;;;;;4.32;3.92;;;21.40;55.60;;;;;;5034949;28;20204;-78
2023/06/09 03:21:46;;;;;;;4.90;4.50;;;21.40;55.50;;;;;;5035416;28;20218;-78
2023/06/09 03:24:17;;;;;;;4.30;4.00;;;21.40;55.40;;;;;;5018938;28;20196;-78
2023/06/09 03:26:45;;;;;;;4.78;4.25;;;21.40;55.40;;;;;;5034412;28;20250;-78
2023/06/09 03:29:12;;;;;;;4.80;4.40;;;21.40;55.20;;;;;;5018171;28;20196;-78
2023/06/09 03:31:41;;;;;;;4.80;4.30;;;21.50;55.20;;;;;;5034476;28;20682;-78
2023/06/09 03:34:09;;;;;;;4.43;4.13;;;21.50;55.10;;;;;;5018278;28;20283;-78
2023/06/09 03:36:36;;;;;;;4.45;4.10;;;21.60;55.00;;;;;;5034637;28;20211;-78
2023/06/09 03:39:05;;;;;;;4.32;4.00;;;21.60;54.90;;;;;;5018505;28;20196;-78
2023/06/09 03:41:34;;;;;;;4.32;3.92;;;21.60;54.70;;;;;;5034398;28;20220;-78
2023/06/09 03:44:01;;;;;;;4.20;3.90;;;21.70;54.70;;;;;;5035336;28;20228;-78
2023/06/09 03:46:28;;;;;;;4.70;4.30;;;21.60;54.60;;;;;;5035358;28;20287;-78
2023/06/09 03:48:55;;;;;;;4.32;3.97;;;21.70;54.60;;;;;;5034498;28;20203;-78
2023/06/09 03:51:22;;;;;;;4.63;4.22;;;21.70;54.50;;;;;;5034362;28;20278;-78
2023/06/09 03:53:50;;;;;;;4.07;3.78;;;21.70;54.50;;;;;;5034378;28;20196;-78
2023/06/09 03:56:17;;;;;;;4.65;4.35;;;21.70;54.40;;;;;;5034315;28;20590;-78
2023/06/09 03:58:46;;;;;;;3.80;3.50;;;21.80;54.50;;;;;;5034395;28;20196;-79
2023/06/09 04:01:17;;;;;;;4.75;4.35;;;21.70;54.30;;;;;;5033877;28;20208;-78
2023/06/09 04:03:46;;;;;;;4.93;4.53;;;21.80;53.60;;;;;;5034046;28;20185;-78
2023/06/09 04:06:13;;;;;;;4.97;4.47;;;21.80;53.20;;;;;;5017644;28;20200;-77
2023/06/09 04:08:44;;;;;;;5.28;4.85;;;21.80;53.30;;;;;;5034199;28;20207;-77
2023/06/09 04:11:12;;;;;;;5.72;5.00;;;21.70;53.10;;;;;;5033713;28;20223;-77
2023/06/09 04:13:40;;;;;;;5.43;5.00;;;21.70;52.90;;;;;;5017202;28;20228;-77
2023/06/09 04:16:09;;;;;;;5.55;4.97;;;21.70;52.80;;;;;;5034391;28;20540;-77
2023/06/09 04:18:36;;;;;;;4.78;4.38;;;21.70;52.80;;;;;;5033828;28;20630;-78
2023/06/09 04:21:03;;;;;;;6.53;6.00;;;21.70;52.90;;;;;;5033189;28;20310;-78
2023/06/09 04:23:32;;;;;;;7.30;5.38;;;21.60;52.20;;;;;;5034649;28;20204;-78
2023/06/09 04:26:02;;;;;;;6.15;5.60;;;21.60;52.00;;;;;;5042289;28;20233;-78
2023/06/09 04:28:33;;;;;;;6.15;5.45;;;21.60;52.10;;;;;;5034681;28;20192;-78
2023/06/09 04:31:00;;;;;;;5.97;5.47;;;21.60;52.20;;;;;;5034035;28;20269;-78
2023/06/09 04:33:28;;;;;;;6.13;5.53;;;21.50;52.30;;;;;;5033294;28;20800;-78
2023/06/09 04:35:58;;;;;;;5.40;4.95;;;21.50;52.50;;;;;;5033927;28;20291;-78
2023/06/09 04:38:27;;;;;;;6.20;5.20;;;21.50;52.90;;;;;;5033725;28;20204;-78
2023/06/09 04:40:57;;;;;;;5.63;5.13;;;21.50;53.20;;;;;;5034582;28;20623;-78
2023/06/09 04:43:28;;;;;;;6.15;5.65;;;21.60;53.40;;;;;;5033812;28;20196;-78
2023/06/09 04:45:57;;;;;;;6.10;5.60;;;21.60;53.60;;;;;;5035259;28;20286;-78
2023/06/09 04:48:25;;;;;;;6.07;5.57;;;21.80;53.60;;;;;;5033822;28;20278;-79
2023/06/09 04:50:54;;;;;;;6.05;5.55;;;21.90;53.70;;;;;;5034862;28;20220;-79
2023/06/09 04:53:21;;;;;;;5.90;5.30;;;22.10;53.60;;;;;;5033496;28;20258;-78
2023/06/09 04:55:55;;;;;;;5.38;4.97;;;22.20;53.10;;;;;;5033423;28;20204;-78
2023/06/09 04:58:25;;;;;;;5.82;5.30;;;22.40;53.20;;;;;;5034963;28;20261;-78
2023/06/09 05:00:55;;;;;;;6.65;6.07;;;22.50;53.20;;;;;;5033671;28;20223;-78
2023/06/09 05:03:23;;;;;;;5.20;4.70;;;22.60;53.10;;;;;;5037084;28;20192;-78
2023/06/09 05:05:51;;;;;;;5.82;5.32;;;22.70;52.40;;;;;;5032851;28;20204;-80
2023/06/09 05:08:21;;;;;;;5.88;5.38;;;22.80;51.90;;;;;;5032727;28;20199;-79
2023/06/09 05:10:49;;;;;;;6.25;5.70;;;23.00;51.70;;;;;;5033060;28;20215;-79
2023/06/09 05:13:17;;;;;;;6.00;5.50;;;23.10;51.30;;;;;;5035189;28;20199;-79
2023/06/09 05:15:45;;;;;;;5.43;5.03;;;23.20;51.10;;;;;;5032934;28;20254;-79
2023/06/09 05:18:17;;;;;;;5.97;5.47;;;23.40;51.00;;;;;;5033398;28;20223;-79
2023/06/09 05:20:45;;;;;;;6.70;6.07;;;23.50;51.00;;;;;;5033041;28;20220;-79
2023/06/09 05:23:12;;;;;;;6.55;5.95;;;23.50;51.10;;;;;;5032837;28;20214;-79
2023/06/09 05:25:41;;;;;;;5.65;5.15;;;23.70;50.90;;;;;;5033951;28;20302;-80
2023/06/09 05:28:08;;;;;;;5.50;5.10;;;23.80;50.70;;;;;;5033171;28;20216;-80
2023/06/09 05:30:35;;;;;;;6.15;5.32;;;23.80;50.40;;;;;;5033647;28;20220;-80
2023/06/09 05:33:03;;;;;;;5.75;5.25;;;24.00;50.20;;;;;;5033039;28;20198;-80
2023/06/09 05:35:31;;;;;;;5.35;4.85;;;24.10;50.00;;;;;;5036934;28;20199;-80
2023/06/09 05:37:58;;;;;;;5.53;5.03;;;24.20;49.80;;;;;;5037293;28;20216;-80
2023/06/09 05:40:27;;;;;;;5.18;4.70;;;24.30;49.30;;;;;;5021058;28;20200;-80
2023/06/09 05:42:56;;;;;;;5.57;5.00;;;24.30;49.20;;;;;;5037064;28;20295;-79
2023/06/09 05:45:23;;;;;;;6.95;4.75;;;24.40;49.10;;;;;;5053732;22;20239;-79
2023/06/09 05:47:50;;;;;;;7.20;5.55;;;24.50;48.30;;;;;;5042512;28;20719;-79
2023/06/09 05:50:17;;;;;;;7.82;5.30;;;24.60;48.10;;;;;;5043546;28;20195;-79
2023/06/09 05:52:45;;;;;;;5.20;4.55;;;24.70;47.90;;;;;;5037300;28;20196;-79
2023/06/09 05:55:12;;;;;;;5.82;5.18;;;24.80;47.70;;;;;;5038786;28;20223;-79
2023/06/09 05:57:40;;;;;;;5.40;4.90;;;24.90;47.50;;;;;;5024250;28;20227;-79
2023/06/09 06:00:10;;;;;;;5.10;4.60;;;24.90;47.20;;;;;;5043315;28;20208;-80
2023/06/09 06:02:40;;;;;;;5.63;4.97;;;25.10;47.10;;;;;;5042492;28;20260;-80
2023/06/09 06:05:08;;;;;;;5.07;4.60;;;25.10;46.90;;;;;;5039432;28;20203;-80
2023/06/09 06:07:36;;;;;;;5.95;4.93;;;25.20;46.80;;;;;;5038646;28;20192;-80
2023/06/09 06:10:04;;;;;;;5.30;4.80;;;25.30;46.60;;;;;;5037923;28;20282;-80
2023/06/09 06:12:31;;;;;;;5.40;4.47;;;25.40;47.10;;;;;;5036999;28;20224;-81
2023/06/09 06:14:58;;;;;;;5.35;4.95;;;25.40;46.20;;;;;;5037409;28;20235;-81
2023/06/09 06:17:27;;;;;;;5.03;4.53;;;25.50;46.10;;;;;;5036894;28;20211;-81
2023/06/09 06:19:54;;;;;;;5.18;4.78;;;25.60;46.00;;;;;;5038750;28;20199;-80
2023/06/09 06:22:21;;;;;;;5.45;4.72;;;25.60;45.80;;;;;;5037609;28;20216;-81
2023/06/09 06:24:48;;;;;;;5.38;4.88;;;25.70;45.70;;;;;;5036310;28;20662;-81
2023/06/09 06:27:15;;;;;;;5.25;4.75;;;25.80;45.60;;;;;;5036735;28;20204;-81
2023/06/09 06:29:43;;;;;;;5.00;4.60;;;25.80;45.30;;;;;;5036790;28;20200;-81
2023/06/09 06:32:10;;;;;;;5.38;4.88;;;25.90;45.30;;;;;;5036115;28;20216;-81
2023/06/09 06:34:39;;;;;;;5.47;4.50;;;26.00;45.20;;;;;;5037371;28;20216;-80
2023/06/09 06:37:06;;;;;;;5.00;4.60;;;26.00;45.00;;;;;;5036493;28;20231;-81
2023/06/09 06:39:33;;;;;;;5.05;4.55;;;26.10;45.00;;;;;;5036839;28;20222;-81
2023/06/09 06:42:00;;;;;;;5.07;4.57;;;26.10;44.80;;;;;;5036176;28;20270;-81
2023/06/09 06:44:34;;;;;;;5.18;4.60;;;26.20;44.70;;;;;;5036612;28;20257;-81
2023/06/09 06:47:01;;;;;;;5.40;4.90;;;26.20;44.60;;;;;;5036237;28;20191;-81
2023/06/09 06:49:28;;;;;;;5.47;4.68;;;26.30;44.50;;;;;;5036016;28;20222;-81
2023/06/09 06:51:56;;;;;;;4.95;4.53;;;26.40;44.50;;;;;;5037195;28;20720;-81
2023/06/09 06:54:23;;;;;;;4.88;4.38;;;26.40;44.30;;;;;;5036607;28;20203;-81
2023/06/09 06:56:51;;;;;;;5.18;4.65;;;26.40;44.10;;;;;;5035867;28;20643;-81
2023/06/09 06:59:18;;;;;;;4.93;4.47;;;26.50;44.10;;;;;;5038226;28;20202;-81
2023/06/09 07:01:45;;;;;;;5.30;4.80;;;26.60;44.00;;;;;;5025592;28;20219;-81
2023/06/09 07:04:12;;;;;;;5.88;5.20;;;26.60;43.90;;;;;;5040669;28;20203;-81
2023/06/09 07:06:40;;;;;;;5.78;5.00;;;26.60;43.80;;;;;;5040870;28;20604;-80
2023/06/09 07:09:08;;;;;;;4.95;4.53;;;26.70;43.80;;;;;;5040807;28;20195;-80
2023/06/09 07:11:36;;;;;;;5.80;4.50;;;26.70;43.70;;;;;;5041019;28;20219;-80
2023/06/09 07:14:03;;;;;;;5.18;4.70;;;26.80;43.60;;;;;;5027460;28;20200;-80
2023/06/09 07:16:31;;;;;;;5.20;4.70;;;26.80;43.60;;;;;;5038502;28;20195;-80
2023/06/09 07:18:57;;;;;;;6.03;5.20;;;26.80;43.50;;;;;;5019397;28;20275;-80
2023/06/09 07:21:25;;;;;;;5.40;4.90;;;26.90;43.50;;;;;;5035807;28;20215;-80
2023/06/09 07:23:52;;;;;;;5.57;4.97;;;26.90;43.40;;;;;;5018932;28;20631;-80
2023/06/09 07:26:20;;;;;;;4.55;4.03;;;26.90;43.30;;;;;;5036679;28;20195;-80
2023/06/09 07:28:47;;;;;;;5.18;4.68;;;26.90;43.30;;;;;;5036974;28;20195;-80
2023/06/09 07:31:15;;;;;;;5.28;4.78;;;27.00;43.20;;;;;;5037303;28;20220;-81
2023/06/09 07:33:43;;;;;;;5.50;5.00;;;27.00;43.20;;;;;;5036369;28;20218;-81
2023/06/09 07:36:11;;;;;;;5.72;4.78;;;27.00;43.10;;;;;;5036664;28;20206;-81
2023/06/09 07:38:42;;;;;;;6.28;4.70;;;27.10;43.20;;;;;;5037250;28;20273;-81
2023/06/09 07:41:20;;;;;;;5.32;4.60;;;27.10;43.20;;;;;;5039542;28;20223;-80
2023/06/09 07:43:52;;;;;;;4.78;4.38;;;27.20;43.40;;;;;;5036669;28;20191;-81
2023/06/09 07:46:19;;;;;;;5.55;4.65;;;27.20;43.40;;;;;;5041209;28;20214;-80
2023/06/09 07:48:46;;;;;;;5.22;4.72;;;27.20;43.40;;;;;;5054863;28;20205;-80
2023/06/09 07:51:16;;;;;;;4.90;4.45;;;27.20;43.40;;;;;;5048540;28;20238;-81
2023/06/09 07:53:43;;;;;;;4.97;4.50;;;27.20;43.30;;;;;;5040333;28;20210;-81
2023/06/09 07:56:10;;;;;;;4.40;4.00;;;27.30;43.40;;;;;;5039844;28;20242;-81
2023/06/09 07:58:37;;;;;;;5.25;4.68;;;27.30;43.40;;;;;;5040236;28;20226;-81
2023/06/09 08:01:06;;;;;;;4.97;4.50;;;27.30;43.20;;;;;;5018847;28;20659;-81
2023/06/09 08:03:35;;;;;;;5.47;4.70;;;27.40;43.30;;;;;;5034853;28;20203;-81
2023/06/09 08:06:03;;;;;;;5.43;4.55;;;27.40;43.20;;;;;;5034756;28;20199;-81
2023/06/09 08:08:31;;;;;;;5.30;4.40;;;27.40;43.10;;;;;;5034626;28;20198;-81
2023/06/09 08:10:58;;;;;;;4.90;4.40;;;27.50;43.00;;;;;;5019037;28;20219;-81
2023/06/09 08:13:25;;;;;;;6.25;4.20;;;27.50;42.90;;;;;;5035222;28;20664;-81
2023/06/09 08:15:53;;;;;;;4.88;4.47;;;27.50;42.90;;;;;;5036457;28;20247;-81
2023/06/09 08:18:21;;;;;;;4.93;4.43;;;27.50;42.80;;;;;;5021284;28;20215;-81
2023/06/09 08:20:48;;;;;;;4.75;4.28;;;27.50;42.70;;;;;;5037465;28;20606;-81
2023/06/09 08:23:20;;;;;;;4.60;4.20;;;27.60;42.70;;;;;;5037236;28;20210;-81
2023/06/09 08:25:47;;;;;;;4.78;4.28;;;27.60;42.60;;;;;;5037861;28;20611;-80
2023/06/09 08:28:14;;;;;;;5.70;4.60;;;27.60;42.40;;;;;;5037085;28;20206;-80
2023/06/09 08:30:41;;;;;;;4.93;4.45;;;27.60;42.40;;;;;;5036897;28;20257;-80
2023/06/09 08:33:08;;;;;;;4.47;4.07;;;27.60;42.30;;;;;;5037100;28;20626;-80
2023/06/09 08:35:37;;;;;;;4.43;4.03;;;27.60;42.20;;;;;;5036254;28;20199;-80
2023/06/09 08:38:04;;;;;;;4.35;3.95;;;27.60;42.20;;;;;;5035227;28;20269;-80
2023/06/09 08:40:31;;;;;;;4.55;4.10;;;27.60;42.20;;;;;;5034673;28;20638;-80
2023/06/09 08:43:00;;;;;;;4.95;4.45;;;27.70;42.30;;;;;;5034758;28;20670;-80
2023/06/09 08:45:29;;;;;;;4.97;4.38;;;27.70;42.30;;;;;;5035042;28;20564;-80
2023/06/09 08:47:56;;;;;;;4.75;4.30;;;27.70;42.30;;;;;;5034554;28;20207;-80
2023/06/09 08:50:25;;;;;;;4.47;4.07;;;27.70;42.30;;;;;;5034277;28;20669;-80
2023/06/09 08:52:53;;;;;;;4.38;3.97;;;27.70;42.10;;;;;;5034607;28;20206;-80
2023/06/09 08:55:21;;;;;;;4.50;4.00;;;27.70;42.10;;;;;;5033917;28;20249;-80
2023/06/09 08:57:48;;;;;;;4.63;3.97;;;27.70;42.00;;;;;;5035024;28;20215;-80
2023/06/09 09:00:15;;;;;;;4.72;4.32;;;27.80;42.00;;;;;;5033087;28;20203;-80
2023/06/09 09:02:43;;;;;;;4.60;4.20;;;27.80;42.00;;;;;;5033965;28;20199;-80
2023/06/09 09:05:10;;;;;;;4.30;4.00;;;27.80;41.90;;;;;;5034960;28;20187;-80
2023/06/09 09:07:38;;;;;;;4.63;4.22;;;27.80;41.90;;;;;;5017836;28;20200;-80
2023/06/09 09:10:07;;;;;;;4.38;3.97;;;27.80;41.90;;;;;;5035311;28;20194;-80
2023/06/09 09:12:46;;;;;;;4.18;3.78;;;27.80;41.80;;;;;;5033352;28;20273;-80
2023/06/09 09:15:13;;;;;;;4.40;4.00;;;27.80;42.50;;;;;;5033807;28;20199;-80
2023/06/09 09:17:40;;;;;;;4.43;4.03;;;27.80;41.80;;;;;;5033286;28;20550;-80
2023/06/09 09:20:08;;;;;;;4.90;4.50;;;27.80;41.80;;;;;;5033167;28;20651;-80
2023/06/09 09:22:44;;;;;;;4.32;3.92;;;27.80;41.80;;;;;;5033276;28;20215;-81
2023/06/09 09:25:20;;;;;;;4.15;3.83;;;27.70;41.70;;;;;;5033090;28;20301;-80
2023/06/09 09:27:59;;;;;;;3.97;3.67;;;27.70;41.80;;;;;;5016806;28;20226;-80
2023/06/09 09:30:42;;;;;;;4.20;3.80;;;27.70;41.80;;;;;;5033302;28;20195;-80
2023/06/09 09:33:09;;;;;;;4.32;3.92;;;27.80;41.90;;;;;;5033403;28;20206;-80
2023/06/09 09:35:38;;;;;;;4.10;3.80;;;27.80;41.90;;;;;;5034205;28;20199;-80
2023/06/09 09:38:06;;;;;;;4.20;3.80;;;27.70;41.80;;;;;;5017860;28;20212;-80
2023/06/09 09:40:35;;;;;;;4.38;3.95;;;27.70;41.80;;;;;;5033530;28;20666;-80
2023/06/09 09:43:02;;;;;;;4.10;3.80;;;27.70;41.80;;;;;;5017665;28;20207;-80
2023/06/09 09:45:37;;;;;;;4.20;3.90;;;27.70;41.90;;;;;;5018167;28;20214;-80
2023/06/09 09:48:09;;;;;;;4.10;3.70;;;27.70;41.90;;;;;;5018563;28;20183;-80
2023/06/09 09:50:37;;;;;;;4.00;3.70;;;27.70;41.90;;;;;;5033579;28;20223;-80
2023/06/09 09:53:05;;;;;;;4.32;3.92;;;27.60;41.90;;;;;;5034108;28;20199;-80
2023/06/09 09:55:32;;;;;;;4.22;3.83;;;27.60;42.00;;;;;;5017585;28;20199;-80
2023/06/09 09:58:02;;;;;;;4.38;3.97;;;27.60;42.00;;;;;;5034582;28;20218;-80
2023/06/09 10:00:29;;;;;;;4.22;3.90;;;27.60;42.00;;;;;;5033906;28;20234;-80
2023/06/09 10:02:59;;;;;;;4.10;3.70;;;27.50;42.10;;;;;;5033988;28;20206;-80
2023/06/09 10:05:27;;;;;;;4.00;3.70;;;27.60;42.00;;;;;;5016769;28;20200;-80
2023/06/09 10:07:56;;;;;;;4.20;3.80;;;27.50;42.10;;;;;;5032860;28;20302;-80
2023/06/09 10:10:23;;;;;;;4.07;3.67;;;27.50;42.10;;;;;;5033469;28;20196;-80
2023/06/09 10:12:51;;;;;;;4.28;3.97;;;27.40;42.10;;;;;;5033127;28;20646;-79
2023/06/09 10:15:20;;;;;;;4.10;3.70;;;27.50;42.20;;;;;;5033730;28;20200;-80
2023/06/09 10:17:48;;;;;;;4.10;3.80;;;27.40;42.10;;;;;;5032907;28;20221;-80
2023/06/09 10:20:16;;;;;;;4.22;3.92;;;27.40;42.10;;;;;;5035265;28;20288;-80
2023/06/09 10:22:43;;;;;;;4.25;3.95;;;27.40;42.30;;;;;;5020849;28;20202;-80
2023/06/09 10:25:12;;;;;;;4.25;3.88;;;27.40;42.40;;;;;;5020381;28;20561;-80
2023/06/09 10:27:39;;;;;;;4.13;3.83;;;27.30;42.50;;;;;;5036489;28;20191;-80
2023/06/09 10:30:08;;;;;;;4.13;3.83;;;27.30;42.60;;;;;;5036635;28;20196;-80
2023/06/09 10:32:40;;;;;;;4.20;3.90;;;27.20;42.60;;;;;;5036807;28;20216;-80
2023/06/09 10:35:07;;;;;;;4.15;3.80;;;27.20;42.80;;;;;;5038202;28;20179;-80
2023/06/09 10:37:35;;;;;;;4.47;4.07;;;27.20;42.90;;;;;;5036459;28;20631;-80
2023/06/09 10:40:08;;;;;;;3.90;3.60;;;27.10;43.00;;;;;;5036309;28;20697;-80
2023/06/09 10:42:41;;;;;;;3.65;3.35;;;27.10;43.00;;;;;;5036453;28;20223;-80
2023/06/09 10:45:10;;;;;;;4.38;3.97;;;27.10;43.10;;;;;;5036414;28;20207;-80
2023/06/09 10:47:46;;;;;;;4.13;3.83;;;27.00;43.20;;;;;;5035172;28;20200;-80
2023/06/09 10:50:23;;;;;;;3.65;3.30;;;27.00;43.30;;;;;;5035008;28;20198;-80
2023/06/09 10:52:53;;;;;;;3.85;3.55;;;27.00;43.40;;;;;;5018381;28;20199;-80
2023/06/09 10:55:22;;;;;;;3.55;3.25;;;27.00;43.50;;;;;;5034581;28;20211;-80
2023/06/09 10:57:50;;;;;;;3.70;3.40;;;26.90;43.50;;;;;;5034409;28;20200;-80
2023/06/09 11:00:18;;;;;;;4.05;3.65;;;26.90;43.70;;;;;;5034967;28;20219;-81
2023/06/09 11:02:48;;;;;;;3.55;3.33;;;26.80;43.60;;;;;;5035075;28;20653;-80
2023/06/09 11:05:16;;;;;;;4.25;3.85;;;26.80;43.70;;;;;;5036565;28;20216;-79
2023/06/09 11:07:45;;;;;;;3.78;3.47;;;26.80;43.70;;;;;;5038048;28;20215;-79
2023/06/09 11:10:35;;;;;;;3.60;3.40;;;26.80;43.80;;;;;;5050144;28;20219;-79
2023/06/09 11:13:03;;;;;;;3.90;3.60;;;26.80;43.90;;;;;;5044097;28;20183;-79
2023/06/09 11:15:57;;;;;;;3.45;3.25;;;26.70;43.80;;;;;;5037002;28;20290;-79
2023/06/09 11:18:26;;;;;;;3.72;3.42;;;26.70;43.90;;;;;;5033944;28;20650;-79
2023/06/09 11:21:14;;;;;;;3.45;3.15;;;26.70;44.00;;;;;;5035214;28;20219;-80
2023/06/09 11:24:02;;;;;;;3.30;3.10;;;26.70;44.00;;;;;;5035540;28;20310;-80
2023/06/09 11:26:31;;;;;;;3.80;3.45;;;26.60;44.00;;;;;;5019517;28;20217;-79
2023/06/09 11:28:58;;;;;;;3.50;3.20;;;26.60;44.00;;;;;;5035064;28;20191;-79
2023/06/09 11:31:26;;;;;;;3.85;3.55;;;26.60;44.00;;;;;;5034266;28;20223;-79
2023/06/09 11:33:55;;;;;;;3.90;3.60;;;26.70;44.10;;;;;;5034854;28;20210;-79
2023/06/09 11:36:27;;;;;;;3.80;3.50;;;26.60;44.00;;;;;;5034611;28;20204;-79
2023/06/09 11:39:07;;;;;;;3.63;3.33;;;26.70;44.10;;;;;;5034868;28;20223;-79
2023/06/09 11:41:34;;;;;;;3.60;3.30;;;26.60;44.10;;;;;;5034690;28;20306;-79
2023/06/09 11:44:01;;;;;;;3.67;3.38;;;26.60;44.10;;;;;;5035740;28;20571;-79
2023/06/09 11:46:33;;;;;;;3.92;3.63;;;26.60;44.00;;;;;;1513570;22;9522934;-59
2023/06/09 11:49:10;;;;;;;3.70;3.40;;;26.70;44.10;;;;;;5013865;28;20268;-58
2023/06/09 11:52:02;;;;;;;3.20;3.00;;;26.70;44.20;;;;;;5015162;28;20203;-58
2023/06/09 11:54:48;;;;;;;3.53;3.33;;;26.70;44.20;;;;;;5015124;28;20177;-58
2023/06/09 11:57:18;;;;;;;4.18;3.70;;;26.60;44.20;;;;;;5015134;28;20188;-58
2023/06/09 11:59:45;;;;;;;3.80;3.45;;;26.60;44.20;;;;;;5013706;28;20222;-58
2023/06/09 12:02:13;;;;;;;3.42;3.13;;;26.60;44.10;;;;;;5014905;28;20188;-58
2023/06/09 12:04:45;;;;;;;3.45;3.25;;;26.60;44.20;;;;;;5013526;28;20203;-58
2023/06/09 12:07:17;;;;;;;3.70;3.40;;;26.60;44.80;;;;;;5015134;28;20564;-58
2023/06/09 12:09:44;;;;;;;3.78;3.47;;;26.60;44.20;;;;;;5014928;28;20614;-59
2023/06/09 12:12:11;;;;;;;3.65;3.35;;;26.60;44.20;;;;;;5013523;28;20203;-59
2023/06/09 12:14:39;;;;;;;3.58;3.28;;;26.60;44.30;;;;;;5014713;28;20195;-58
2023/06/09 12:17:06;;;;;;;3.55;3.30;;;26.60;44.30;;;;;;5013740;28;20207;-58
2023/06/09 12:19:33;;;;;;;3.60;3.30;;;26.60;44.30;;;;;;5013597;28;20219;-59
2023/06/09 12:22:03;;;;;;;3.45;3.15;;;26.60;44.30;;;;;;5014582;28;20707;-58
2023/06/09 12:24:31;;;;;;;3.60;3.30;;;26.60;44.40;;;;;;5015120;28;20192;-58
2023/06/09 12:26:59;;;;;;;3.00;2.80;;;26.60;44.40;;;;;;5014816;28;20227;-58
2023/06/09 12:29:26;;;;;;;3.53;3.22;;;26.60;44.50;;;;;;5012044;28;20223;-59
2023/06/09 12:31:53;;;;;;;3.42;3.10;;;26.60;44.60;;;;;;5014376;28;20199;-59
2023/06/09 12:34:29;;;;;;;3.85;3.53;;;26.50;44.60;;;;;;5012996;28;20227;-58
2023/06/09 12:36:57;;;;;;;3.22;3.03;;;26.50;44.60;;;;;;5013032;28;20566;-58
2023/06/09 12:39:26;;;;;;;3.40;3.20;;;26.50;44.60;;;;;;5013026;28;20298;-58
2023/06/09 12:41:53;;;;;;;3.13;2.92;;;26.50;44.70;;;;;;5013998;28;20196;-58
2023/06/09 12:44:23;;;;;;;3.08;2.88;;;26.50;44.60;;;;;;5012986;28;20196;-58
2023/06/09 12:46:55;;;;;;;3.47;3.20;;;26.50;44.70;;;;;;5012816;28;20204;-58
2023/06/09 12:49:30;;;;;;;3.40;3.15;;;26.40;44.70;;;;;;5012916;28;20200;-58
2023/06/09 12:51:57;;;;;;;3.08;2.88;;;26.40;44.80;;;;;;5015100;28;20215;-59
2023/06/09 12:54:26;;;;;;;3.40;3.13;;;26.40;44.80;;;;;;5015690;28;20192;-59
2023/06/09 12:56:53;;;;;;;3.13;2.92;;;26.40;44.80;;;;;;5014257;28;20188;-59